Time;durP1;ratioP1;P1;durP2;ratioP2;P2;SDS_P1;SDS_P2;PMS_P1;PMS_P2;Temp;Humidity;BMP_temperature;BMP_pressure;BME280_temperature;BME280_humidity;BME280_pressure;Samples;Min_cycle;Max_cycle;Signal;HPM_P1;HPM_P2
2022/10/25 00:00:11;;;;;;;25.55;19.98;;;15.40;99.90;;;;;;5053784;28;20025;-71
2022/10/25 00:02:36;;;;;;;28.98;20.42;;;15.40;99.90;;;;;;5068223;28;20036;-70
2022/10/25 00:05:03;;;;;;;28.27;20.65;;;15.40;99.90;;;;;;5067897;28;20088;-71
2022/10/25 00:07:29;;;;;;;27.92;19.40;;;15.30;99.90;;;;;;5067893;28;20032;-71
2022/10/25 00:09:55;;;;;;;23.70;18.00;;;15.30;99.90;;;;;;5068937;28;20036;-70
2022/10/25 00:12:20;;;;;;;26.65;18.55;;;15.40;99.90;;;;;;5065103;28;20051;-72
2022/10/25 00:14:46;;;;;;;27.17;20.05;;;15.40;99.90;;;;;;5065667;28;20060;-70
2022/10/25 00:17:12;;;;;;;28.05;19.30;;;15.30;99.90;;;;;;5065729;28;20074;-70
2022/10/25 00:19:37;;;;;;;29.27;20.42;;;15.30;99.90;;;;;;5064909;28;20534;-70
2022/10/25 00:22:03;;;;;;;32.60;21.85;;;15.40;99.90;;;;;;5067307;28;20127;-70
2022/10/25 00:24:28;;;;;;;28.33;19.58;;;15.40;99.90;;;;;;5067088;28;20057;-71
2022/10/25 00:26:54;;;;;;;25.83;18.88;;;15.40;99.90;;;;;;5069111;28;20024;-70
2022/10/25 00:29:20;;;;;;;25.83;19.40;;;15.40;99.90;;;;;;5066127;28;20039;-70
2022/10/25 00:31:45;;;;;;;28.83;19.20;;;15.30;99.90;;;;;;5067118;28;20032;-70
2022/10/25 00:34:11;;;;;;;28.13;18.83;;;15.20;99.90;;;;;;5068300;28;20040;-73
2022/10/25 00:36:36;;;;;;;30.55;20.27;;;15.20;99.90;;;;;;5067158;28;20041;-72
2022/10/25 00:39:02;;;;;;;28.55;20.48;;;15.20;99.90;;;;;;5068261;28;21054;-71
2022/10/25 00:41:31;;;;;;;30.05;19.85;;;15.30;99.90;;;;;;5067053;28;20033;-69
2022/10/25 00:44:34;;;;;;;30.38;19.10;;;15.20;99.90;;;;;;5066005;28;20064;-69
2022/10/25 00:47:01;;;;;;;;;;;15.20;99.90;;;;;;5067035;28;20028;-69
2022/10/25 00:49:26;;;;;;;20.70;16.00;;;15.20;99.90;;;;;;5067265;28;19946;-69
2022/10/25 00:51:58;;;;;;;23.88;16.88;;;15.30;99.90;;;;;;5069642;28;20038;-69
2022/10/25 00:54:32;;;;;;;25.00;17.17;;;15.30;99.90;;;;;;5065745;28;20045;-70
2022/10/25 00:57:07;;;;;;;24.50;17.20;;;15.30;99.90;;;;;;5068877;28;20021;-70
2022/10/25 00:59:33;;;;;;;25.52;17.30;;;15.40;99.90;;;;;;5068918;28;20144;-70
2022/10/25 01:01:59;;;;;;;25.83;17.23;;;15.40;99.90;;;;;;5066392;28;20263;-70
2022/10/25 01:04:28;;;;;;;21.63;15.82;;;15.40;99.90;;;;;;5067371;28;20024;-70
2022/10/25 01:06:54;;;;;;;16.05;13.25;;;15.40;99.90;;;;;;5070196;28;20526;-70
2022/10/25 01:09:24;;;;;;;23.20;15.00;;;15.50;99.90;;;;;;5065520;28;20028;-71
2022/10/25 01:11:50;;;;;;;20.42;15.55;;;15.50;99.90;;;;;;5064727;28;20051;-72
2022/10/25 01:14:16;;;;;;;20.45;13.60;;;15.50;99.90;;;;;;5067525;28;20470;-77
2022/10/25 01:17:19;;;;;;;16.42;12.75;;;15.50;99.90;;;;;;5061346;28;20055;-72
2022/10/25 01:19:48;;;;;;;16.85;12.73;;;15.50;99.90;;;;;;5069679;28;20890;-71
2022/10/25 01:22:28;;;;;;;17.55;12.70;;;15.50;99.90;;;;;;5070636;28;20048;-70
2022/10/25 01:25:31;;;;;;;17.23;13.45;;;15.60;99.90;;;;;;5070437;28;20044;-70
2022/10/25 01:28:15;;;;;;;19.52;12.80;;;15.60;99.90;;;;;;5068951;28;20036;-70
2022/10/25 01:31:05;;;;;;;16.17;11.52;;;15.60;99.90;;;;;;5066106;28;20069;-70
2022/10/25 01:33:47;;;;;;;13.73;10.98;;;15.70;99.90;;;;;;5065658;28;20031;-69
2022/10/25 01:36:21;;;;;;;15.73;11.23;;;15.70;99.90;;;;;;5068146;28;20039;-70
2022/10/25 01:38:54;;;;;;;12.93;10.38;;;15.70;99.90;;;;;;5065840;28;20765;-70
2022/10/25 01:41:35;;;;;;;17.13;11.55;;;15.70;99.90;;;;;;5070913;28;20027;-69
2022/10/25 01:44:16;;;;;;;14.38;11.15;;;15.70;99.90;;;;;;5074535;28;20520;-70
2022/10/25 01:46:53;;;;;;;13.48;10.82;;;15.60;99.90;;;;;;5061770;28;20032;-70
2022/10/25 01:49:40;;;;;;;13.52;11.38;;;15.70;99.90;;;;;;5069945;28;20062;-69
2022/10/25 01:52:06;;;;;;;15.88;11.32;;;15.60;99.90;;;;;;5071083;28;20121;-69
2022/10/25 01:54:31;;;;;;;15.07;11.00;;;15.60;99.90;;;;;;5066044;28;20536;-69
2022/10/25 01:57:14;;;;;;;11.93;9.60;;;15.60;99.90;;;;;;5067584;28;20040;-70
2022/10/25 02:00:01;;;;;;;15.68;10.15;;;15.60;99.90;;;;;;5066861;28;20031;-69
2022/10/25 02:02:53;;;;;;;13.23;8.75;;;15.60;99.90;;;;;;5062597;28;20051;-69
2022/10/25 02:05:26;;;;;;;10.40;8.37;;;15.60;99.90;;;;;;5037301;28;20097;-69
2022/10/25 02:08:12;;;;;;;8.05;7.00;;;15.60;99.90;;;;;;5070378;28;20040;-68
2022/10/25 02:10:41;;;;;;;10.48;7.90;;;15.70;99.90;;;;;;5065734;28;20132;-69
2022/10/25 02:13:42;;;;;;;10.00;7.10;;;15.70;99.90;;;;;;5068996;28;20035;-70
2022/10/25 02:16:14;;;;;;;9.77;7.85;;;15.80;99.90;;;;;;5065123;28;20024;-70
2022/10/25 02:18:46;;;;;;;11.32;8.38;;;15.70;99.90;;;;;;5067555;28;20032;-70
2022/10/25 02:21:14;;;;;;;9.68;7.95;;;15.60;99.90;;;;;;5050183;28;20040;-70
2022/10/25 02:23:40;;;;;;;9.43;7.57;;;15.50;99.90;;;;;;5064549;28;20514;-69
2022/10/25 02:26:08;;;;;;;8.70;7.80;;;15.50;99.90;;;;;;5072603;28;20032;-70
2022/10/25 02:28:38;;;;;;;11.75;8.50;;;15.40;99.90;;;;;;5063509;28;20376;-70
2022/10/25 02:31:09;;;;;;;8.25;7.38;;;15.30;99.90;;;;;;5061396;28;20103;-70
2022/10/25 02:33:35;;;;;;;8.32;6.60;;;15.30;99.90;;;;;;5067219;28;20031;-69
2022/10/25 02:36:12;;;;;;;8.65;7.63;;;15.30;99.90;;;;;;5074222;28;20807;-69
2022/10/25 02:38:38;;;;;;;9.07;7.60;;;15.20;99.90;;;;;;5065206;28;20131;-69
2022/10/25 02:41:05;;;;;;;8.85;6.93;;;15.20;99.90;;;;;;5067432;28;20024;-70
2022/10/25 02:43:31;;;;;;;9.93;7.50;;;15.10;99.90;;;;;;5065439;28;20024;-69
2022/10/25 02:45:57;;;;;;;9.30;7.93;;;15.10;99.90;;;;;;5063361;28;21091;-70
2022/10/25 02:48:22;;;;;;;8.90;7.65;;;15.10;99.90;;;;;;5066381;28;20133;-70
2022/10/25 02:50:48;;;;;;;9.85;7.78;;;15.10;99.90;;;;;;5071561;28;20505;-69
2022/10/25 02:53:13;;;;;;;9.73;6.82;;;15.00;99.90;;;;;;5068064;28;20028;-72
2022/10/25 02:55:39;;;;;;;8.90;6.57;;;15.00;99.90;;;;;;5054915;28;20036;-70
2022/10/25 02:58:05;;;;;;;6.25;5.63;;;14.90;99.90;;;;;;5068910;28;20131;-70
2022/10/25 03:00:30;;;;;;;5.43;4.90;;;14.90;99.90;;;;;;5068376;28;20576;-70
2022/10/25 03:02:56;;;;;;;7.00;5.00;;;14.70;99.90;;;;;;5067495;28;20047;-70
2022/10/25 03:05:22;;;;;;;7.18;4.18;;;14.70;99.90;;;;;;5069784;28;20056;-70
2022/10/25 03:07:47;;;;;;;5.85;4.72;;;14.60;99.90;;;;;;5066821;28;20164;-71
2022/10/25 03:10:13;;;;;;;5.85;5.20;;;14.70;99.90;;;;;;5068717;28;20400;-70
2022/10/25 03:12:39;;;;;;;6.43;5.22;;;14.70;99.90;;;;;;5067404;28;20052;-71
2022/10/25 03:15:05;;;;;;;6.53;4.70;;;14.60;99.90;;;;;;5066490;28;20028;-71
2022/10/25 03:17:30;;;;;;;5.15;4.30;;;14.60;99.90;;;;;;5066942;28;20151;-70
2022/10/25 03:19:56;;;;;;;5.53;4.65;;;14.50;99.90;;;;;;5075265;28;20619;-71
2022/10/25 03:22:22;;;;;;;4.90;4.10;;;14.50;99.90;;;;;;5071885;28;20577;-70
2022/10/25 03:24:47;;;;;;;5.30;4.35;;;14.60;99.90;;;;;;5070374;28;20025;-70
2022/10/25 03:27:13;;;;;;;6.07;4.57;;;14.60;99.90;;;;;;5072317;28;20042;-70
2022/10/25 03:29:39;;;;;;;4.03;3.47;;;14.60;99.90;;;;;;5064640;28;20016;-70
2022/10/25 03:32:06;;;;;;;5.30;3.33;;;14.60;99.90;;;;;;5071766;28;20467;-70
2022/10/25 03:34:32;;;;;;;2.78;2.50;;;14.60;99.90;;;;;;5067675;28;20494;-70
2022/10/25 03:36:58;;;;;;;2.90;2.35;;;14.60;99.90;;;;;;5069661;28;20044;-70
2022/10/25 03:39:23;;;;;;;2.30;2.10;;;14.60;99.90;;;;;;5072208;28;20043;-70
2022/10/25 03:41:49;;;;;;;4.28;2.30;;;14.60;99.90;;;;;;5072801;28;20043;-70
2022/10/25 03:44:15;;;;;;;2.45;2.25;;;14.60;99.90;;;;;;5070024;28;20115;-70
2022/10/25 03:46:40;;;;;;;2.00;1.70;;;14.70;99.90;;;;;;5069250;28;20028;-70
2022/10/25 03:49:06;;;;;;;2.35;2.15;;;14.70;99.90;;;;;;5070495;28;24053;-70
2022/10/25 03:51:32;;;;;;;2.40;1.80;;;14.80;99.90;;;;;;5069410;28;20031;-70
2022/10/25 03:53:57;;;;;;;1.50;1.40;;;14.90;99.90;;;;;;5073342;28;20024;-70
2022/10/25 03:56:23;;;;;;;4.82;1.90;;;14.90;99.90;;;;;;5070651;28;20082;-70
2022/10/25 03:58:49;;;;;;;3.58;2.05;;;14.90;99.90;;;;;;5070275;28;20060;-70
2022/10/25 04:01:14;;;;;;;3.50;2.10;;;15.00;99.90;;;;;;5069176;28;20036;-70
2022/10/25 04:03:40;;;;;;;2.15;1.80;;;15.00;99.90;;;;;;5066853;28;20031;-71
2022/10/25 04:06:06;;;;;;;3.42;1.85;;;15.10;99.90;;;;;;5070754;28;20078;-71
2022/10/25 04:08:31;;;;;;;3.65;1.50;;;15.10;99.90;;;;;;5073367;28;20101;-71
2022/10/25 04:10:57;;;;;;;4.18;1.67;;;15.20;99.90;;;;;;5065546;28;20472;-71
2022/10/25 04:13:22;;;;;;;3.13;1.40;;;15.20;99.90;;;;;;5067960;28;20033;-71
2022/10/25 04:15:48;;;;;;;2.17;1.58;;;15.10;99.90;;;;;;5067811;28;20028;-70
2022/10/25 04:18:13;;;;;;;2.38;1.63;;;15.00;99.90;;;;;;5065662;28;20032;-70
2022/10/25 04:20:39;;;;;;;3.40;1.83;;;15.00;99.90;;;;;;5070070;28;20024;-70
2022/10/25 04:23:05;;;;;;;2.85;2.10;;;15.00;99.90;;;;;;5069081;28;20048;-70
2022/10/25 04:25:30;;;;;;;2.95;2.17;;;15.00;99.90;;;;;;5070405;28;20162;-71
2022/10/25 04:27:58;;;;;;;2.95;2.00;;;14.90;99.90;;;;;;5061774;28;20028;-72
2022/10/25 04:30:24;;;;;;;2.10;2.00;;;15.00;99.90;;;;;;5067050;28;20496;-70
2022/10/25 04:32:49;;;;;;;3.42;2.15;;;15.00;99.90;;;;;;5068780;28;20063;-70
2022/10/25 04:35:15;;;;;;;2.38;1.92;;;15.10;99.90;;;;;;5069692;28;20028;-71
2022/10/25 04:37:41;;;;;;;2.17;1.95;;;15.10;99.90;;;;;;5068997;28;20048;-70
2022/10/25 04:40:07;;;;;;;2.40;2.20;;;15.10;99.90;;;;;;5067660;28;20930;-71
2022/10/25 04:42:33;;;;;;;2.97;2.78;;;15.00;99.90;;;;;;5068019;28;20130;-71
2022/10/25 04:44:59;;;;;;;2.95;2.60;;;15.00;99.90;;;;;;5063363;28;20763;-71
2022/10/25 04:47:28;;;;;;;3.60;2.60;;;15.00;99.90;;;;;;5067466;28;20043;-71
2022/10/25 04:49:54;;;;;;;5.63;4.05;;;15.00;99.90;;;;;;5067661;28;20029;-71
2022/10/25 04:52:20;;;;;;;9.40;5.72;;;15.00;99.90;;;;;;5069225;28;20047;-70
2022/10/25 04:54:46;;;;;;;6.05;4.25;;;15.00;99.90;;;;;;5066653;28;20024;-70
2022/10/25 04:57:11;;;;;;;4.55;3.08;;;15.10;99.90;;;;;;5067498;28;20027;-70
2022/10/25 04:59:37;;;;;;;3.60;3.03;;;15.10;99.90;;;;;;5061457;28;20042;-70
2022/10/25 05:02:02;;;;;;;3.13;2.35;;;15.20;99.90;;;;;;5061429;28;20046;-70
2022/10/25 05:04:28;;;;;;;5.45;2.60;;;15.30;99.90;;;;;;5068937;28;20388;-70
2022/10/25 05:06:54;;;;;;;5.20;2.85;;;15.30;99.90;;;;;;5067233;28;20032;-72
2022/10/25 05:09:19;;;;;;;4.45;2.90;;;15.40;99.90;;;;;;5067650;28;20040;-70
2022/10/25 05:11:45;;;;;;;4.60;2.80;;;15.40;99.90;;;;;;5070479;28;20032;-71
2022/10/25 05:14:10;;;;;;;3.45;2.30;;;15.40;99.90;;;;;;5067104;28;20031;-69
2022/10/25 05:16:38;;;;;;;4.47;2.28;;;15.40;99.90;;;;;;5066818;28;20028;-71
2022/10/25 05:19:03;;;;;;;2.95;2.63;;;15.40;99.90;;;;;;5068058;28;20056;-70
2022/10/25 05:21:29;;;;;;;2.55;2.35;;;15.50;99.90;;;;;;5071750;28;20127;-70
2022/10/25 05:23:59;;;;;;;2.90;2.70;;;15.50;99.90;;;;;;5069451;28;20032;-69
2022/10/25 05:26:25;;;;;;;2.65;2.45;;;15.50;99.90;;;;;;5062371;28;20032;-70
2022/10/25 05:28:52;;;;;;;6.82;4.75;;;15.50;99.90;;;;;;5068882;28;20032;-70
2022/10/25 05:31:29;;;;;;;7.18;6.05;;;15.50;99.90;;;;;;5051056;28;20028;-69
2022/10/25 05:33:56;;;;;;;6.82;3.53;;;15.50;99.90;;;;;;5064820;28;20388;-68
2022/10/25 05:36:24;;;;;;;4.90;3.60;;;15.60;99.90;;;;;;5063400;28;20063;-72
2022/10/25 05:38:49;;;;;;;6.30;3.50;;;15.50;99.90;;;;;;5068421;28;20035;-69
2022/10/25 05:41:16;;;;;;;5.47;3.67;;;15.50;99.90;;;;;;5072774;28;20028;-69
2022/10/25 05:43:43;;;;;;;2.72;2.25;;;15.50;99.90;;;;;;5068589;28;20033;-68
2022/10/25 05:46:17;;;;;;;1.60;1.42;;;15.50;99.90;;;;;;5065307;28;20024;-67
2022/10/25 05:48:43;;;;;;;2.25;1.90;;;15.40;99.90;;;;;;5070266;28;20559;-68
2022/10/25 05:51:11;;;;;;;3.50;2.85;;;15.40;99.90;;;;;;5070126;28;20097;-69
2022/10/25 05:53:50;;;;;;;3.08;2.38;;;15.40;99.90;;;;;;5073152;28;20035;-69
2022/10/25 05:56:18;;;;;;;4.82;2.38;;;15.40;99.90;;;;;;5068299;28;20392;-69
2022/10/25 05:58:44;;;;;;;2.95;1.88;;;15.50;99.90;;;;;;5068381;28;20488;-69
2022/10/25 06:01:11;;;;;;;4.40;1.67;;;15.40;99.90;;;;;;5059943;28;20108;-68
2022/10/25 06:03:36;;;;;;;1.42;1.33;;;15.50;99.90;;;;;;5070708;28;20047;-68
2022/10/25 06:06:05;;;;;;;3.88;2.65;;;15.50;99.90;;;;;;5066697;28;20067;-69
2022/10/25 06:08:31;;;;;;;9.35;4.95;;;15.50;99.90;;;;;;5069632;28;20107;-69
2022/10/25 06:11:05;;;;;;;7.93;4.45;;;15.50;99.90;;;;;;5068880;28;20024;-71
2022/10/25 06:13:31;;;;;;;5.15;4.65;;;15.60;99.90;;;;;;5067234;28;20115;-69
2022/10/25 06:15:57;;;;;;;6.18;4.80;;;15.50;99.90;;;;;;5062995;28;20789;-69
2022/10/25 06:18:23;;;;;;;6.15;4.65;;;15.40;99.90;;;;;;5068618;28;20028;-69
2022/10/25 06:20:49;;;;;;;4.85;2.97;;;15.40;99.90;;;;;;5069226;28;20024;-69
2022/10/25 06:23:15;;;;;;;5.32;3.00;;;15.40;99.90;;;;;;5065848;28;20056;-68
2022/10/25 06:25:41;;;;;;;4.88;2.92;;;15.30;99.90;;;;;;5066911;28;20042;-69
2022/10/25 06:28:08;;;;;;;3.75;2.80;;;15.30;99.90;;;;;;5066664;28;20040;-69
2022/10/25 06:30:34;;;;;;;4.00;2.83;;;15.30;99.90;;;;;;5057478;28;24031;-69
2022/10/25 06:33:00;;;;;;;4.93;3.30;;;15.30;99.90;;;;;;5070444;28;20063;-69
2022/10/25 06:35:27;;;;;;;5.80;2.95;;;15.30;99.90;;;;;;5073901;28;20317;-69
2022/10/25 06:37:53;;;;;;;3.72;3.05;;;15.30;99.90;;;;;;5071766;28;20107;-69
2022/10/25 06:40:18;;;;;;;8.43;4.05;;;15.30;99.90;;;;;;5071971;28;20143;-69
2022/10/25 06:42:44;;;;;;;38.83;35.22;;;15.30;99.90;;;;;;5062326;28;20160;-69
2022/10/25 06:45:10;;;;;;;11.30;10.13;;;15.40;99.90;;;;;;5070856;28;20028;-69
2022/10/25 06:47:35;;;;;;;7.28;5.03;;;15.30;99.90;;;;;;5073525;28;20035;-69
2022/10/25 06:50:01;;;;;;;4.70;3.67;;;15.40;99.90;;;;;;5075512;28;20987;-69
2022/10/25 06:52:27;;;;;;;5.32;3.80;;;15.50;99.90;;;;;;5071434;28;20714;-69
2022/10/25 06:54:53;;;;;;;4.68;3.38;;;15.50;99.90;;;;;;5072440;28;21055;-69
2022/10/25 06:57:18;;;;;;;21.40;3.80;;;15.50;99.90;;;;;;5065430;28;20036;-69
2022/10/25 06:59:44;;;;;;;4.80;3.30;;;15.50;99.90;;;;;;5071320;28;20117;-69
2022/10/25 07:02:10;;;;;;;4.72;3.40;;;15.50;99.90;;;;;;5070383;28;20071;-69
2022/10/25 07:04:35;;;;;;;6.38;4.22;;;15.50;99.90;;;;;;5061686;28;20048;-69
2022/10/25 07:07:01;;;;;;;9.68;6.40;;;15.50;99.90;;;;;;5075164;28;20063;-69
2022/10/25 07:09:28;;;;;;;6.65;4.53;;;15.50;99.90;;;;;;5070799;28;20107;-70
2022/10/25 07:11:53;;;;;;;6.93;5.45;;;15.50;99.90;;;;;;5068073;28;20585;-69
2022/10/25 07:14:19;;;;;;;5.68;3.30;;;15.50;99.90;;;;;;5075141;28;20050;-70
2022/10/25 07:16:45;;;;;;;7.25;4.97;;;15.50;99.90;;;;;;5073310;28;20031;-69
2022/10/25 07:19:10;;;;;;;9.75;4.03;;;15.60;99.90;;;;;;5069965;28;20032;-69
2022/10/25 07:21:36;;;;;;;4.45;3.03;;;15.60;99.90;;;;;;5069374;28;20052;-70
2022/10/25 07:24:02;;;;;;;3.05;2.40;;;15.70;99.90;;;;;;5053682;28;20122;-69
2022/10/25 07:26:30;;;;;;;6.47;3.70;;;15.70;99.90;;;;;;5067778;28;20110;-69
2022/10/25 07:28:57;;;;;;;6.28;5.05;;;15.70;99.90;;;;;;5059308;28;20024;-69
2022/10/25 07:31:29;;;;;;;6.90;4.28;;;15.70;99.90;;;;;;5069967;28;20495;-69
2022/10/25 07:33:58;;;;;;;67.77;40.17;;;15.70;99.90;;;;;;5076077;28;20032;-69
2022/10/25 07:36:24;;;;;;;75.13;40.30;;;15.80;99.90;;;;;;5078012;28;20028;-68
2022/10/25 07:38:50;;;;;;;21.20;13.57;;;15.90;99.90;;;;;;5073385;28;20040;-70
2022/10/25 07:41:16;;;;;;;6.95;5.93;;;15.90;99.90;;;;;;5069129;28;20073;-69
2022/10/25 07:43:41;;;;;;;5.43;4.03;;;16.00;99.90;;;;;;5066087;28;20039;-69
2022/10/25 07:46:07;;;;;;;5.43;3.33;;;16.00;99.90;;;;;;5066501;28;20115;-69
2022/10/25 07:48:33;;;;;;;11.73;7.47;;;16.00;99.90;;;;;;5069251;28;20687;-69
2022/10/25 07:51:08;;;;;;;9.13;5.65;;;15.90;99.90;;;;;;5062048;28;20060;-69
2022/10/25 07:53:34;;;;;;;97.85;56.60;;;15.90;99.90;;;;;;5067117;28;20111;-70
2022/10/25 07:56:00;;;;;;;94.28;57.55;;;15.90;99.90;;;;;;5070113;28;20037;-70
2022/10/25 07:58:26;;;;;;;34.30;22.73;;;16.00;99.90;;;;;;5063775;28;20062;-69
2022/10/25 08:00:51;;;;;;;9.23;5.68;;;16.00;99.90;;;;;;5065224;28;20111;-70
2022/10/25 08:03:17;;;;;;;3.85;2.95;;;16.10;99.90;;;;;;5070550;28;20044;-69
2022/10/25 08:05:45;;;;;;;3.40;2.75;;;16.10;99.90;;;;;;5064731;28;20032;-69
2022/10/25 08:08:11;;;;;;;3.83;2.20;;;16.10;99.90;;;;;;5069810;28;20034;-69
2022/10/25 08:10:37;;;;;;;2.10;1.90;;;16.10;99.90;;;;;;5068825;28;20104;-69
2022/10/25 08:13:02;;;;;;;3.35;2.53;;;16.10;99.90;;;;;;5049074;28;20028;-70
2022/10/25 08:15:28;;;;;;;2.55;2.33;;;16.10;99.90;;;;;;5061601;28;20036;-70
2022/10/25 08:18:01;;;;;;;3.97;2.42;;;16.10;99.90;;;;;;5070048;28;20449;-69
2022/10/25 08:20:28;;;;;;;1.63;1.50;;;16.10;99.90;;;;;;5064086;28;20571;-70
2022/10/25 08:22:57;;;;;;;3.10;1.73;;;16.10;99.90;;;;;;5063643;28;20045;-70
2022/10/25 08:25:23;;;;;;;2.08;1.45;;;16.00;99.90;;;;;;5070495;28;20043;-70
2022/10/25 08:27:49;;;;;;;2.75;2.10;;;16.10;99.90;;;;;;5069449;28;20035;-71
2022/10/25 08:30:15;;;;;;;3.20;2.42;;;16.10;99.90;;;;;;5073808;28;20032;-70
2022/10/25 08:32:40;;;;;;;3.67;2.22;;;16.10;99.90;;;;;;5071766;28;20032;-70
2022/10/25 08:35:06;;;;;;;6.72;4.47;;;16.00;99.90;;;;;;5064820;28;20028;-70
2022/10/25 08:37:32;;;;;;;9.85;6.50;;;16.00;99.90;;;;;;5074621;28;20039;-71
2022/10/25 08:39:57;;;;;;;8.32;4.45;;;16.00;99.90;;;;;;5073557;28;20024;-71
2022/10/25 08:42:39;;;;;;;4.97;3.90;;;16.00;99.90;;;;;;5068201;28;20491;-70
2022/10/25 08:45:23;;;;;;;5.30;3.33;;;16.00;99.90;;;;;;5073138;28;20020;-71
2022/10/25 08:47:52;;;;;;;8.82;6.60;;;16.00;99.90;;;;;;5070166;28;20032;-71
2022/10/25 08:50:36;;;;;;;8.77;5.82;;;16.00;99.90;;;;;;5073276;28;20500;-70
2022/10/25 08:53:07;;;;;;;4.63;3.40;;;16.00;99.90;;;;;;5072997;28;20028;-71
2022/10/25 08:55:39;;;;;;;6.18;4.68;;;16.00;99.90;;;;;;5071330;28;20035;-71
2022/10/25 08:58:14;;;;;;;5.78;4.72;;;16.00;99.90;;;;;;5070055;28;20473;-70
2022/10/25 09:00:42;;;;;;;6.25;4.38;;;16.00;99.90;;;;;;5066500;28;20028;-70
2022/10/25 09:03:15;;;;;;;4.75;4.07;;;16.10;99.90;;;;;;5070505;28;20397;-71
2022/10/25 09:05:56;;;;;;;5.18;4.20;;;16.10;99.90;;;;;;5065422;28;20013;-70
2022/10/25 09:08:46;;;;;;;5.72;4.60;;;16.20;99.90;;;;;;5073585;28;20032;-70
2022/10/25 09:11:40;;;;;;;14.10;9.82;;;16.20;99.90;;;;;;5072312;28;20118;-70
2022/10/25 09:14:41;;;;;;;8.45;6.22;;;16.30;99.90;;;;;;5063910;28;20035;-71
2022/10/25 09:17:32;;;;;;;10.52;6.38;;;16.30;99.90;;;;;;5007746;28;20062;-70
2022/10/25 09:20:15;;;;;;;5.15;4.65;;;16.30;99.90;;;;;;5070854;28;20032;-71
2022/10/25 09:22:46;;;;;;;6.20;4.25;;;16.40;99.90;;;;;;5073144;28;20487;-71
2022/10/25 09:25:30;;;;;;;3.88;3.35;;;16.50;99.90;;;;;;5065015;28;20099;-71
2022/10/25 09:28:05;;;;;;;4.93;4.43;;;16.50;99.90;;;;;;5067365;28;20146;-71
2022/10/25 09:30:36;;;;;;;5.07;3.65;;;16.50;99.90;;;;;;5070191;28;20032;-72
2022/10/25 09:33:07;;;;;;;6.05;4.25;;;16.50;99.90;;;;;;5069232;28;20497;-72
2022/10/25 09:35:41;;;;;;;4.88;4.35;;;16.40;99.90;;;;;;5071071;28;21409;-70
2022/10/25 09:38:21;;;;;;;7.50;3.70;;;16.50;99.90;;;;;;5066833;28;20159;-71
2022/10/25 09:41:16;;;;;;;4.20;3.30;;;16.40;99.90;;;;;;5070909;28;20638;-70
2022/10/25 09:43:52;;;;;;;4.97;3.85;;;16.50;99.90;;;;;;5070729;28;20048;-70
2022/10/25 09:46:33;;;;;;;5.78;5.18;;;16.60;99.90;;;;;;5069629;28;20040;-70
2022/10/25 09:49:21;;;;;;;5.20;3.70;;;16.60;99.90;;;;;;5071065;28;20094;-75
2022/10/25 09:52:02;;;;;;;4.40;3.78;;;16.60;99.90;;;;;;5075543;28;20104;-71
2022/10/25 09:54:44;;;;;;;6.13;4.03;;;16.70;99.90;;;;;;5072097;28;20036;-70
2022/10/25 09:57:10;;;;;;;6.22;3.90;;;16.90;99.90;;;;;;5054083;28;20260;-70
2022/10/25 09:59:36;;;;;;;3.72;3.42;;;17.00;99.90;;;;;;5070529;28;20030;-70
2022/10/25 10:02:01;;;;;;;4.13;3.70;;;17.10;99.90;;;;;;5073864;28;20753;-70
2022/10/25 10:04:36;;;;;;;7.38;5.13;;;17.20;99.90;;;;;;5072819;28;21767;-73
2022/10/25 10:07:13;;;;;;;8.52;4.50;;;17.30;99.90;;;;;;5063712;28;20020;-76
2022/10/25 10:09:40;;;;;;;4.68;3.97;;;17.40;99.90;;;;;;5067486;28;20039;-73
2022/10/25 10:12:14;;;;;;;3.63;3.30;;;17.40;99.90;;;;;;5068340;28;20028;-77
2022/10/25 10:14:46;;;;;;;5.15;3.92;;;17.40;99.90;;;;;;5071586;28;20071;-73
2022/10/25 10:17:16;;;;;;;6.13;4.50;;;17.40;99.90;;;;;;5066271;28;21136;-73
2022/10/25 10:19:42;;;;;;;5.82;4.68;;;17.40;99.90;;;;;;5069833;28;20037;-73
2022/10/25 10:22:13;;;;;;;4.93;4.40;;;17.40;99.90;;;;;;5067491;28;20534;-74
2022/10/25 10:24:42;;;;;;;7.53;5.20;;;17.40;99.90;;;;;;5062895;28;20032;-74
2022/10/25 10:27:12;;;;;;;5.28;4.80;;;17.40;99.90;;;;;;5067271;28;20043;-74
2022/10/25 10:30:00;;;;;;;4.57;3.78;;;17.40;99.90;;;;;;5050453;28;20054;-80
2022/10/25 10:32:31;;;;;;;4.30;3.90;;;17.30;99.90;;;;;;5070066;28;20553;-74
2022/10/25 10:34:58;;;;;;;7.63;4.18;;;17.30;99.90;;;;;;5064652;28;20036;-73
2022/10/25 10:37:25;;;;;;;2.60;2.40;;;17.40;99.90;;;;;;5070716;28;20032;-72
2022/10/25 10:39:52;;;;;;;1.90;1.80;;;17.40;99.90;;;;;;5064781;28;20591;-81
2022/10/25 10:42:36;;;;;;;2.53;1.65;;;17.50;99.90;;;;;;5069042;28;20028;-77
2022/10/25 10:45:06;;;;;;;2.47;1.65;;;17.60;99.90;;;;;;5065566;28;20509;-78
2022/10/25 10:47:41;;;;;;;1.75;1.20;;;17.60;99.90;;;;;;5071033;28;20045;-70
2022/10/25 10:50:34;;;;;;;2.70;1.08;;;17.60;99.90;;;;;;5066133;28;20038;-70
2022/10/25 10:53:02;;;;;;;;;;;17.70;99.90;;;;;;5068069;28;20013;-71
2022/10/25 10:55:32;;;;;;;7.10;3.50;;;17.80;99.90;;;;;;5066111;28;20387;-75
2022/10/25 10:58:23;;;;;;;3.55;2.50;;;17.80;99.90;;;;;;5067492;28;20111;-70
2022/10/25 11:00:53;;;;;;;1.67;1.27;;;17.80;99.90;;;;;;5069965;28;20028;-70
2022/10/25 11:03:35;;;;;;;1.65;0.70;;;17.80;99.90;;;;;;5067370;28;20127;-71
2022/10/25 11:06:01;;;;;;;1.70;0.45;;;17.90;99.90;;;;;;5062179;28;20031;-71
2022/10/25 11:08:26;;;;;;;1.52;0.70;;;17.90;99.90;;;;;;5064848;28;20039;-71
2022/10/25 11:11:10;;;;;;;3.42;0.88;;;17.90;99.90;;;;;;5066323;28;20532;-71
2022/10/25 11:13:36;;;;;;;3.17;0.70;;;18.00;99.90;;;;;;5066364;28;20047;-71
2022/10/25 11:16:09;;;;;;;1.65;0.70;;;18.10;99.90;;;;;;5068924;28;20070;-71
2022/10/25 11:18:45;;;;;;;3.00;0.77;;;18.20;99.90;;;;;;5069420;28;20684;-71
2022/10/25 11:21:59;;;;;;;1.67;0.50;;;18.40;99.90;;;;;;5068492;28;20036;-71
2022/10/25 11:24:33;;;;;;;3.45;0.63;;;18.60;99.90;;;;;;5025052;28;20060;-71
2022/10/25 11:27:19;;;;;;;3.40;0.60;;;18.60;99.90;;;;;;5069517;28;21092;-70
2022/10/25 11:30:17;;;;;;;3.33;0.68;;;18.60;99.90;;;;;;5067420;28;20024;-70
2022/10/25 11:33:09;;;;;;;1.48;0.70;;;18.80;99.90;;;;;;5069802;28;20036;-70
2022/10/25 11:36:04;;;;;;;1.87;0.77;;;19.00;99.90;;;;;;5064360;28;20052;-70
2022/10/25 11:38:48;;;;;;;2.33;0.63;;;19.10;99.90;;;;;;5066527;28;20398;-72
2022/10/25 11:41:23;;;;;;;1.80;0.65;;;19.20;99.90;;;;;;5073820;28;20036;-73
2022/10/25 11:44:20;;;;;;;2.53;0.60;;;19.30;99.90;;;;;;5075517;28;20032;-73
2022/10/25 11:46:46;;;;;;;1.92;0.70;;;19.30;99.90;;;;;;5060656;28;20119;-73
2022/10/25 11:49:55;;;;;;;2.55;1.00;;;19.30;99.90;;;;;;5072734;28;20089;-71
2022/10/25 11:53:02;;;;;;;0.85;0.50;;;19.30;99.90;;;;;;5073739;28;20105;-72
2022/10/25 11:55:41;;;;;;;0.75;0.43;;;19.30;99.90;;;;;;5066968;28;20048;-72
2022/10/25 11:58:22;;;;;;;0.57;0.43;;;19.40;99.90;;;;;;5074892;28;20055;-72
2022/10/25 12:00:59;;;;;;;1.60;0.45;;;19.50;99.90;;;;;;5076618;28;20499;-72
2022/10/25 12:03:27;;;;;;;0.80;0.55;;;19.40;99.90;;;;;;5074357;28;20131;-77
2022/10/25 12:06:00;;;;;;;1.92;0.50;;;19.30;99.90;;;;;;5072834;28;20032;-78
2022/10/25 12:08:48;;;;;;;0.68;0.68;;;19.20;99.90;;;;;;5071577;28;20100;-79
2022/10/25 12:11:19;;;;;;;5.25;0.80;;;19.20;99.90;;;;;;5064916;28;20028;-77
2022/10/25 12:13:53;;;;;;;0.82;0.73;;;19.20;99.90;;;;;;5073670;28;20035;-76
2022/10/25 12:16:22;;;;;;;0.85;0.60;;;19.10;99.90;;;;;;5069863;28;21082;-75
2022/10/25 12:18:51;;;;;;;3.17;0.77;;;19.20;99.90;;;;;;5076177;28;20056;-77
2022/10/25 12:21:30;;;;;;;0.90;0.55;;;19.20;99.90;;;;;;5073221;28;20035;-74
2022/10/25 12:23:56;;;;;;;1.08;0.77;;;19.10;99.90;;;;;;5070121;28;20052;-72
2022/10/25 12:26:34;;;;;;;1.55;0.70;;;19.10;99.90;;;;;;5064348;28;20086;-73
2022/10/25 12:29:04;;;;;;;0.70;0.60;;;19.10;99.90;;;;;;5073303;28;20024;-72
2022/10/25 12:31:55;;;;;;;1.83;1.00;;;19.10;99.90;;;;;;5066896;28;20039;-75
2022/10/25 12:34:43;;;;;;;2.08;0.80;;;19.20;99.90;;;;;;5051391;28;20080;-73
2022/10/25 12:37:21;;;;;;;3.67;0.60;;;19.30;99.90;;;;;;5069719;28;20033;-71
2022/10/25 12:39:47;;;;;;;2.53;0.95;;;19.20;99.90;;;;;;5074012;28;20790;-77
2022/10/25 12:42:18;;;;;;;1.83;1.08;;;19.20;99.90;;;;;;5067110;28;20044;-77
2022/10/25 12:45:08;;;;;;;2.25;0.90;;;19.20;99.90;;;;;;5070775;28;20081;-81
2022/10/25 12:47:54;;;;;;;1.33;0.52;;;19.10;99.90;;;;;;5067159;28;20481;-78
2022/10/25 12:50:41;;;;;;;1.70;0.63;;;19.20;99.90;;;;;;5070454;28;20093;-80
2022/10/25 12:53:49;;;;;;;2.70;0.93;;;19.20;99.90;;;;;;5071479;28;20056;-80
2022/10/25 12:56:37;;;;;;;0.77;0.50;;;19.20;99.90;;;;;;5068746;28;20024;-81
2022/10/25 12:59:21;;;;;;;2.67;0.90;;;19.20;99.90;;;;;;5073441;28;20047;-78
2022/10/25 13:02:18;;;;;;;2.95;0.80;;;19.30;99.90;;;;;;5067194;28;20036;-76
2022/10/25 13:05:19;;;;;;;2.35;0.70;;;19.40;99.90;;;;;;5071801;28;20059;-79